sensor_id;sensor_type;location;lat;lon;timestamp;P1;durP1;ratioP1;P2;durP2;ratioP2
58659;SDS011;44429;45.110;20.622;2022-08-19T00:00:37;13.40;;;6.30;;
58659;SDS011;44429;45.110;20.622;2022-08-19T00:03:03;12.38;;;5.80;;
58659;SDS011;44429;45.110;20.622;2022-08-19T00:05:30;11.70;;;5.88;;
58659;SDS011;44429;45.110;20.622;2022-08-19T00:07:56;18.52;;;6.60;;
58659;SDS011;44429;45.110;20.622;2022-08-19T00:10:23;14.93;;;6.72;;
58659;SDS011;44429;45.110;20.622;2022-08-19T00:12:49;14.25;;;6.05;;
58659;SDS011;44429;45.110;20.622;2022-08-19T00:15:16;14.88;;;6.15;;
58659;SDS011;44429;45.110;20.622;2022-08-19T00:17:43;13.75;;;5.72;;
58659;SDS011;44429;45.110;20.622;2022-08-19T00:20:11;11.57;;;5.90;;
58659;SDS011;44429;45.110;20.622;2022-08-19T00:22:37;11.38;;;5.93;;
58659;SDS011;44429;45.110;20.622;2022-08-19T00:25:05;15.15;;;5.70;;
58659;SDS011;44429;45.110;20.622;2022-08-19T00:27:31;11.13;;;6.85;;
58659;SDS011;44429;45.110;20.622;2022-08-19T00:29:57;10.75;;;6.07;;
58659;SDS011;44429;45.110;20.622;2022-08-19T00:32:24;11.57;;;5.70;;
58659;SDS011;44429;45.110;20.622;2022-08-19T00:34:51;14.35;;;6.53;;
58659;SDS011;44429;45.110;20.622;2022-08-19T00:37:18;12.68;;;6.30;;
58659;SDS011;44429;45.110;20.622;2022-08-19T00:39:44;12.05;;;6.13;;
58659;SDS011;44429;45.110;20.622;2022-08-19T00:42:10;13.60;;;5.97;;
58659;SDS011;44429;45.110;20.622;2022-08-19T00:44:38;19.27;;;6.60;;
58659;SDS011;44429;45.110;20.622;2022-08-19T00:47:04;19.15;;;6.75;;
58659;SDS011;44429;45.110;20.622;2022-08-19T00:49:35;11.95;;;6.20;;
58659;SDS011;44429;45.110;20.622;2022-08-19T00:52:09;11.83;;;5.97;;
58659;SDS011;44429;45.110;20.622;2022-08-19T00:54:37;13.95;;;6.28;;
58659;SDS011;44429;45.110;20.622;2022-08-19T00:57:04;15.57;;;6.00;;
58659;SDS011;44429;45.110;20.622;2022-08-19T00:59:32;11.57;;;5.90;;
58659;SDS011;44429;45.110;20.622;2022-08-19T01:01:59;14.35;;;6.00;;
58659;SDS011;44429;45.110;20.622;2022-08-19T01:04:26;13.90;;;6.20;;
58659;SDS011;44429;45.110;20.622;2022-08-19T01:06:52;14.40;;;6.30;;
58659;SDS011;44429;45.110;20.622;2022-08-19T01:09:18;13.27;;;5.97;;
58659;SDS011;44429;45.110;20.622;2022-08-19T01:11:44;12.88;;;6.25;;
58659;SDS011;44429;45.110;20.622;2022-08-19T01:14:10;13.60;;;6.35;;
58659;SDS011;44429;45.110;20.622;2022-08-19T01:16:37;13.88;;;6.68;;
58659;SDS011;44429;45.110;20.622;2022-08-19T01:19:10;10.70;;;5.43;;
58659;SDS011;44429;45.110;20.622;2022-08-19T01:21:42;15.30;;;6.78;;
58659;SDS011;44429;45.110;20.622;2022-08-19T01:24:09;14.73;;;6.28;;
58659;SDS011;44429;45.110;20.622;2022-08-19T01:26:40;13.15;;;5.97;;
58659;SDS011;44429;45.110;20.622;2022-08-19T01:29:07;16.25;;;6.95;;
58659;SDS011;44429;45.110;20.622;2022-08-19T01:31:34;12.15;;;5.82;;
58659;SDS011;44429;45.110;20.622;2022-08-19T01:34:00;11.60;;;6.32;;
58659;SDS011;44429;45.110;20.622;2022-08-19T01:36:32;14.18;;;6.40;;
58659;SDS011;44429;45.110;20.622;2022-08-19T01:38:58;14.23;;;6.10;;
58659;SDS011;44429;45.110;20.622;2022-08-19T01:41:24;15.95;;;5.97;;
58659;SDS011;44429;45.110;20.622;2022-08-19T01:43:51;12.80;;;5.97;;
58659;SDS011;44429;45.110;20.622;2022-08-19T01:46:18;13.90;;;5.85;;
58659;SDS011;44429;45.110;20.622;2022-08-19T01:48:45;12.65;;;6.63;;
58659;SDS011;44429;45.110;20.622;2022-08-19T01:51:11;15.63;;;6.25;;
58659;SDS011;44429;45.110;20.622;2022-08-19T01:53:38;19.70;;;6.25;;
58659;SDS011;44429;45.110;20.622;2022-08-19T01:56:04;14.10;;;5.50;;
58659;SDS011;44429;45.110;20.622;2022-08-19T01:58:32;15.25;;;6.30;;
58659;SDS011;44429;45.110;20.622;2022-08-19T02:01:01;14.35;;;6.35;;
58659;SDS011;44429;45.110;20.622;2022-08-19T02:03:27;16.50;;;6.40;;
58659;SDS011;44429;45.110;20.622;2022-08-19T02:05:57;12.00;;;5.45;;
58659;SDS011;44429;45.110;20.622;2022-08-19T02:08:25;14.82;;;6.25;;
58659;SDS011;44429;45.110;20.622;2022-08-19T02:10:51;18.15;;;6.47;;
58659;SDS011;44429;45.110;20.622;2022-08-19T02:13:18;12.05;;;5.68;;
58659;SDS011;44429;45.110;20.622;2022-08-19T02:15:45;16.65;;;5.78;;
58659;SDS011;44429;45.110;20.622;2022-08-19T02:18:12;11.48;;;5.70;;
58659;SDS011;44429;45.110;20.622;2022-08-19T02:20:39;13.00;;;5.93;;
58659;SDS011;44429;45.110;20.622;2022-08-19T02:23:06;14.43;;;5.90;;
58659;SDS011;44429;45.110;20.622;2022-08-19T02:25:32;13.20;;;5.75;;
58659;SDS011;44429;45.110;20.622;2022-08-19T02:27:58;12.23;;;5.10;;
58659;SDS011;44429;45.110;20.622;2022-08-19T02:30:24;12.02;;;5.30;;
58659;SDS011;44429;45.110;20.622;2022-08-19T02:32:51;14.25;;;5.22;;
58659;SDS011;44429;45.110;20.622;2022-08-19T02:35:17;15.73;;;5.10;;
58659;SDS011;44429;45.110;20.622;2022-08-19T02:37:43;12.27;;;5.30;;
58659;SDS011;44429;45.110;20.622;2022-08-19T02:40:28;12.68;;;5.53;;
58659;SDS011;44429;45.110;20.622;2022-08-19T02:42:58;10.65;;;5.63;;
58659;SDS011;44429;45.110;20.622;2022-08-19T02:45:25;11.93;;;5.03;;
58659;SDS011;44429;45.110;20.622;2022-08-19T02:47:52;9.32;;;4.75;;
58659;SDS011;44429;45.110;20.622;2022-08-19T02:50:18;15.25;;;5.20;;
58659;SDS011;44429;45.110;20.622;2022-08-19T02:52:44;9.45;;;4.88;;
58659;SDS011;44429;45.110;20.622;2022-08-19T02:55:10;18.60;;;5.78;;
58659;SDS011;44429;45.110;20.622;2022-08-19T02:57:36;11.23;;;5.78;;
58659;SDS011;44429;45.110;20.622;2022-08-19T03:00:06;10.77;;;5.00;;
58659;SDS011;44429;45.110;20.622;2022-08-19T03:02:49;9.20;;;4.57;;
58659;SDS011;44429;45.110;20.622;2022-08-19T03:05:15;9.73;;;5.10;;
58659;SDS011;44429;45.110;20.622;2022-08-19T03:07:41;10.18;;;4.85;;
58659;SDS011;44429;45.110;20.622;2022-08-19T03:10:08;10.98;;;4.65;;
58659;SDS011;44429;45.110;20.622;2022-08-19T03:12:37;8.77;;;4.65;;
58659;SDS011;44429;45.110;20.622;2022-08-19T03:15:04;12.45;;;5.22;;
58659;SDS011;44429;45.110;20.622;2022-08-19T03:17:31;12.65;;;4.65;;
58659;SDS011;44429;45.110;20.622;2022-08-19T03:19:57;8.75;;;4.30;;
58659;SDS011;44429;45.110;20.622;2022-08-19T03:22:23;10.27;;;5.30;;
58659;SDS011;44429;45.110;20.622;2022-08-19T03:24:50;10.93;;;4.80;;
58659;SDS011;44429;45.110;20.622;2022-08-19T03:27:16;9.57;;;3.92;;
58659;SDS011;44429;45.110;20.622;2022-08-19T03:29:42;9.18;;;4.50;;
58659;SDS011;44429;45.110;20.622;2022-08-19T03:32:09;11.88;;;4.85;;
58659;SDS011;44429;45.110;20.622;2022-08-19T03:34:36;10.20;;;4.70;;
58659;SDS011;44429;45.110;20.622;2022-08-19T03:37:04;10.15;;;4.43;;
58659;SDS011;44429;45.110;20.622;2022-08-19T03:39:30;8.93;;;4.20;;
58659;SDS011;44429;45.110;20.622;2022-08-19T03:41:56;10.85;;;4.45;;
58659;SDS011;44429;45.110;20.622;2022-08-19T03:44:25;10.27;;;4.40;;
58659;SDS011;44429;45.110;20.622;2022-08-19T03:46:52;13.13;;;4.50;;
58659;SDS011;44429;45.110;20.622;2022-08-19T03:49:20;9.70;;;4.32;;
58659;SDS011;44429;45.110;20.622;2022-08-19T03:51:47;10.75;;;4.10;;
58659;SDS011;44429;45.110;20.622;2022-08-19T03:54:17;8.45;;;4.13;;
58659;SDS011;44429;45.110;20.622;2022-08-19T03:56:44;15.38;;;4.75;;
58659;SDS011;44429;45.110;20.622;2022-08-19T03:59:11;8.95;;;4.45;;
58659;SDS011;44429;45.110;20.622;2022-08-19T04:01:38;7.88;;;4.07;;
58659;SDS011;44429;45.110;20.622;2022-08-19T04:04:04;9.57;;;4.28;;
58659;SDS011;44429;45.110;20.622;2022-08-19T04:06:32;9.43;;;4.22;;
58659;SDS011;44429;45.110;20.622;2022-08-19T04:08:59;11.35;;;4.43;;
58659;SDS011;44429;45.110;20.622;2022-08-19T04:11:30;8.45;;;4.18;;
58659;SDS011;44429;45.110;20.622;2022-08-19T04:13:57;13.25;;;4.40;;
58659;SDS011;44429;45.110;20.622;2022-08-19T04:16:24;9.55;;;4.13;;
58659;SDS011;44429;45.110;20.622;2022-08-19T04:18:54;10.75;;;4.78;;
58659;SDS011;44429;45.110;20.622;2022-08-19T04:21:22;11.85;;;4.20;;
58659;SDS011;44429;45.110;20.622;2022-08-19T04:23:48;12.57;;;4.75;;
58659;SDS011;44429;45.110;20.622;2022-08-19T04:26:16;12.00;;;4.60;;
58659;SDS011;44429;45.110;20.622;2022-08-19T04:28:44;9.40;;;3.92;;
58659;SDS011;44429;45.110;20.622;2022-08-19T04:31:14;11.20;;;4.30;;
58659;SDS011;44429;45.110;20.622;2022-08-19T04:33:40;13.02;;;4.28;;
58659;SDS011;44429;45.110;20.622;2022-08-19T04:36:07;12.40;;;4.60;;
58659;SDS011;44429;45.110;20.622;2022-08-19T04:38:35;10.10;;;4.50;;
58659;SDS011;44429;45.110;20.622;2022-08-19T04:41:02;9.82;;;4.38;;
58659;SDS011;44429;45.110;20.622;2022-08-19T04:43:47;9.02;;;4.28;;
58659;SDS011;44429;45.110;20.622;2022-08-19T04:46:13;9.65;;;4.15;;
58659;SDS011;44429;45.110;20.622;2022-08-19T04:48:40;14.10;;;4.85;;
58659;SDS011;44429;45.110;20.622;2022-08-19T04:51:07;9.95;;;4.20;;
58659;SDS011;44429;45.110;20.622;2022-08-19T04:53:34;8.82;;;4.28;;
58659;SDS011;44429;45.110;20.622;2022-08-19T04:56:03;8.75;;;3.78;;
58659;SDS011;44429;45.110;20.622;2022-08-19T04:58:30;11.88;;;3.90;;
58659;SDS011;44429;45.110;20.622;2022-08-19T05:00:56;8.05;;;4.10;;
58659;SDS011;44429;45.110;20.622;2022-08-19T05:03:23;9.73;;;4.35;;
58659;SDS011;44429;45.110;20.622;2022-08-19T05:05:49;10.73;;;4.07;;
58659;SDS011;44429;45.110;20.622;2022-08-19T05:08:16;10.63;;;3.90;;
58659;SDS011;44429;45.110;20.622;2022-08-19T05:10:49;9.70;;;4.00;;
58659;SDS011;44429;45.110;20.622;2022-08-19T05:13:16;9.13;;;3.90;;
58659;SDS011;44429;45.110;20.622;2022-08-19T05:15:43;13.63;;;3.92;;
58659;SDS011;44429;45.110;20.622;2022-08-19T05:18:09;12.80;;;4.18;;
58659;SDS011;44429;45.110;20.622;2022-08-19T05:20:55;8.23;;;3.80;;
58659;SDS011;44429;45.110;20.622;2022-08-19T05:23:39;8.23;;;4.00;;
58659;SDS011;44429;45.110;20.622;2022-08-19T05:26:06;9.93;;;4.30;;
58659;SDS011;44429;45.110;20.622;2022-08-19T05:28:34;9.52;;;4.13;;
58659;SDS011;44429;45.110;20.622;2022-08-19T05:31:00;8.27;;;3.83;;
58659;SDS011;44429;45.110;20.622;2022-08-19T05:33:26;8.60;;;3.97;;
58659;SDS011;44429;45.110;20.622;2022-08-19T05:35:52;11.70;;;4.05;;
58659;SDS011;44429;45.110;20.622;2022-08-19T05:38:19;11.85;;;4.22;;
58659;SDS011;44429;45.110;20.622;2022-08-19T05:40:45;9.00;;;3.88;;
58659;SDS011;44429;45.110;20.622;2022-08-19T05:43:13;11.57;;;4.60;;
58659;SDS011;44429;45.110;20.622;2022-08-19T05:45:43;12.75;;;4.97;;
58659;SDS011;44429;45.110;20.622;2022-08-19T05:48:09;10.93;;;4.45;;
58659;SDS011;44429;45.110;20.622;2022-08-19T05:50:37;8.95;;;4.30;;
58659;SDS011;44429;45.110;20.622;2022-08-19T05:53:03;8.52;;;4.00;;
58659;SDS011;44429;45.110;20.622;2022-08-19T05:55:30;13.50;;;4.28;;
58659;SDS011;44429;45.110;20.622;2022-08-19T05:57:56;9.95;;;4.15;;
58659;SDS011;44429;45.110;20.622;2022-08-19T06:00:22;11.85;;;4.65;;
58659;SDS011;44429;45.110;20.622;2022-08-19T06:02:48;10.45;;;3.85;;
58659;SDS011;44429;45.110;20.622;2022-08-19T06:05:16;10.50;;;4.20;;
58659;SDS011;44429;45.110;20.622;2022-08-19T06:07:42;10.57;;;4.10;;
58659;SDS011;44429;45.110;20.622;2022-08-19T06:10:09;8.50;;;4.13;;
58659;SDS011;44429;45.110;20.622;2022-08-19T06:12:36;10.30;;;4.07;;
58659;SDS011;44429;45.110;20.622;2022-08-19T06:15:04;10.23;;;4.05;;
58659;SDS011;44429;45.110;20.622;2022-08-19T06:17:30;10.60;;;4.05;;
58659;SDS011;44429;45.110;20.622;2022-08-19T06:19:57;9.15;;;3.50;;
58659;SDS011;44429;45.110;20.622;2022-08-19T06:22:23;10.73;;;4.05;;
58659;SDS011;44429;45.110;20.622;2022-08-19T06:24:49;9.75;;;4.28;;
58659;SDS011;44429;45.110;20.622;2022-08-19T06:27:17;9.52;;;4.38;;
58659;SDS011;44429;45.110;20.622;2022-08-19T06:29:44;8.45;;;3.38;;
58659;SDS011;44429;45.110;20.622;2022-08-19T06:32:11;9.38;;;4.03;;
58659;SDS011;44429;45.110;20.622;2022-08-19T06:34:38;8.70;;;3.53;;
58659;SDS011;44429;45.110;20.622;2022-08-19T06:37:04;11.77;;;4.30;;
58659;SDS011;44429;45.110;20.622;2022-08-19T06:39:31;9.80;;;3.92;;
58659;SDS011;44429;45.110;20.622;2022-08-19T06:42:00;8.18;;;3.03;;
58659;SDS011;44429;45.110;20.622;2022-08-19T06:44:27;7.85;;;3.53;;
58659;SDS011;44429;45.110;20.622;2022-08-19T06:46:54;9.43;;;3.60;;
58659;SDS011;44429;45.110;20.622;2022-08-19T06:49:21;9.23;;;4.30;;
58659;SDS011;44429;45.110;20.622;2022-08-19T06:51:47;8.02;;;3.60;;
58659;SDS011;44429;45.110;20.622;2022-08-19T06:54:15;8.88;;;3.88;;
58659;SDS011;44429;45.110;20.622;2022-08-19T06:56:41;8.13;;;3.45;;
58659;SDS011;44429;45.110;20.622;2022-08-19T06:59:11;9.52;;;3.58;;
58659;SDS011;44429;45.110;20.622;2022-08-19T07:01:59;7.65;;;3.45;;
58659;SDS011;44429;45.110;20.622;2022-08-19T07:04:25;7.00;;;3.72;;
58659;SDS011;44429;45.110;20.622;2022-08-19T07:06:58;11.35;;;3.42;;
58659;SDS011;44429;45.110;20.622;2022-08-19T07:09:25;12.25;;;3.67;;
58659;SDS011;44429;45.110;20.622;2022-08-19T07:11:52;9.48;;;3.80;;
58659;SDS011;44429;45.110;20.622;2022-08-19T07:14:20;8.70;;;3.45;;
58659;SDS011;44429;45.110;20.622;2022-08-19T07:16:48;8.65;;;3.72;;
58659;SDS011;44429;45.110;20.622;2022-08-19T07:19:15;7.03;;;3.22;;
58659;SDS011;44429;45.110;20.622;2022-08-19T07:21:41;9.73;;;3.70;;
58659;SDS011;44429;45.110;20.622;2022-08-19T07:24:07;8.20;;;3.30;;
58659;SDS011;44429;45.110;20.622;2022-08-19T07:26:37;11.43;;;3.75;;
58659;SDS011;44429;45.110;20.622;2022-08-19T07:29:04;13.63;;;4.13;;
58659;SDS011;44429;45.110;20.622;2022-08-19T07:31:30;10.90;;;3.50;;
58659;SDS011;44429;45.110;20.622;2022-08-19T07:34:05;11.55;;;3.92;;
58659;SDS011;44429;45.110;20.622;2022-08-19T07:36:32;8.80;;;3.75;;
58659;SDS011;44429;45.110;20.622;2022-08-19T07:39:00;8.90;;;3.72;;
58659;SDS011;44429;45.110;20.622;2022-08-19T07:41:27;8.75;;;3.95;;
58659;SDS011;44429;45.110;20.622;2022-08-19T07:43:54;9.07;;;3.30;;
58659;SDS011;44429;45.110;20.622;2022-08-19T07:46:20;16.83;;;3.97;;
58659;SDS011;44429;45.110;20.622;2022-08-19T07:48:47;12.25;;;3.92;;
58659;SDS011;44429;45.110;20.622;2022-08-19T07:51:15;11.48;;;3.95;;
58659;SDS011;44429;45.110;20.622;2022-08-19T07:53:42;9.45;;;3.40;;
58659;SDS011;44429;45.110;20.622;2022-08-19T07:56:10;13.48;;;3.95;;
58659;SDS011;44429;45.110;20.622;2022-08-19T07:58:38;9.18;;;3.38;;
58659;SDS011;44429;45.110;20.622;2022-08-19T08:01:05;11.95;;;4.05;;
58659;SDS011;44429;45.110;20.622;2022-08-19T08:03:31;7.55;;;3.50;;
58659;SDS011;44429;45.110;20.622;2022-08-19T08:06:27;8.60;;;4.00;;
58659;SDS011;44429;45.110;20.622;2022-08-19T08:09:13;11.55;;;3.75;;
58659;SDS011;44429;45.110;20.622;2022-08-19T08:11:51;10.05;;;3.60;;
58659;SDS011;44429;45.110;20.622;2022-08-19T08:14:22;9.90;;;3.28;;
58659;SDS011;44429;45.110;20.622;2022-08-19T08:16:49;9.73;;;3.80;;
58659;SDS011;44429;45.110;20.622;2022-08-19T08:19:17;8.82;;;3.90;;
58659;SDS011;44429;45.110;20.622;2022-08-19T08:21:43;7.55;;;3.50;;
58659;SDS011;44429;45.110;20.622;2022-08-19T08:24:10;7.90;;;3.30;;
58659;SDS011;44429;45.110;20.622;2022-08-19T08:26:37;7.40;;;3.65;;
58659;SDS011;44429;45.110;20.622;2022-08-19T08:29:03;10.10;;;3.55;;
58659;SDS011;44429;45.110;20.622;2022-08-19T08:31:32;9.65;;;3.58;;
58659;SDS011;44429;45.110;20.622;2022-08-19T08:33:59;7.25;;;3.67;;
58659;SDS011;44429;45.110;20.622;2022-08-19T08:36:25;10.27;;;3.90;;
58659;SDS011;44429;45.110;20.622;2022-08-19T08:38:52;10.50;;;3.75;;
58659;SDS011;44429;45.110;20.622;2022-08-19T08:43:45;10.15;;;3.42;;
58659;SDS011;44429;45.110;20.622;2022-08-19T08:51:34;7.53;;;3.58;;
58659;SDS011;44429;45.110;20.622;2022-08-19T08:54:06;10.90;;;3.90;;
58659;SDS011;44429;45.110;20.622;2022-08-19T08:56:33;12.77;;;4.85;;
58659;SDS011;44429;45.110;20.622;2022-08-19T09:01:26;8.57;;;3.50;;
58659;SDS011;44429;45.110;20.622;2022-08-19T09:03:54;8.38;;;3.60;;
58659;SDS011;44429;45.110;20.622;2022-08-19T09:14:21;8.57;;;3.80;;
58659;SDS011;44429;45.110;20.622;2022-08-19T09:16:43;8.27;;;3.90;;
58659;SDS011;44429;45.110;20.622;2022-08-19T09:19:09;9.40;;;4.25;;
58659;SDS011;44429;45.110;20.622;2022-08-19T09:21:35;9.80;;;4.45;;
58659;SDS011;44429;45.110;20.622;2022-08-19T09:24:03;14.30;;;3.78;;
58659;SDS011;44429;45.110;20.622;2022-08-19T09:26:30;9.57;;;3.67;;
58659;SDS011;44429;45.110;20.622;2022-08-19T09:28:57;8.50;;;3.78;;
58659;SDS011;44429;45.110;20.622;2022-08-19T09:31:28;9.77;;;3.72;;
58659;SDS011;44429;45.110;20.622;2022-08-19T09:33:55;9.40;;;3.78;;
58659;SDS011;44429;45.110;20.622;2022-08-19T09:36:22;15.30;;;4.63;;
58659;SDS011;44429;45.110;20.622;2022-08-19T09:38:50;10.55;;;3.90;;
58659;SDS011;44429;45.110;20.622;2022-08-19T09:41:20;9.60;;;4.05;;
58659;SDS011;44429;45.110;20.622;2022-08-19T09:43:48;12.10;;;4.07;;
58659;SDS011;44429;45.110;20.622;2022-08-19T09:46:16;9.20;;;3.33;;
58659;SDS011;44429;45.110;20.622;2022-08-19T09:48:43;11.57;;;4.28;;
58659;SDS011;44429;45.110;20.622;2022-08-19T09:51:14;8.00;;;3.65;;
58659;SDS011;44429;45.110;20.622;2022-08-19T09:53:41;9.50;;;3.42;;
58659;SDS011;44429;45.110;20.622;2022-08-19T09:56:08;9.38;;;4.03;;
58659;SDS011;44429;45.110;20.622;2022-08-19T09:58:34;9.70;;;3.40;;
58659;SDS011;44429;45.110;20.622;2022-08-19T10:01:01;11.65;;;4.00;;
58659;SDS011;44429;45.110;20.622;2022-08-19T10:03:28;10.50;;;3.78;;
58659;SDS011;44429;45.110;20.622;2022-08-19T10:05:55;7.65;;;3.92;;
58659;SDS011;44429;45.110;20.622;2022-08-19T10:08:23;12.18;;;4.00;;
58659;SDS011;44429;45.110;20.622;2022-08-19T10:10:50;8.15;;;3.88;;
58659;SDS011;44429;45.110;20.622;2022-08-19T10:13:18;9.98;;;3.53;;
58659;SDS011;44429;45.110;20.622;2022-08-19T10:15:47;8.93;;;3.97;;
58659;SDS011;44429;45.110;20.622;2022-08-19T10:18:16;9.23;;;3.40;;
58659;SDS011;44429;45.110;20.622;2022-08-19T10:20:43;9.15;;;3.55;;
58659;SDS011;44429;45.110;20.622;2022-08-19T10:23:10;8.82;;;3.30;;
58659;SDS011;44429;45.110;20.622;2022-08-19T10:25:36;8.13;;;3.03;;
58659;SDS011;44429;45.110;20.622;2022-08-19T10:28:02;8.35;;;3.15;;
58659;SDS011;44429;45.110;20.622;2022-08-19T10:30:31;9.77;;;3.92;;
58659;SDS011;44429;45.110;20.622;2022-08-19T10:32:57;9.45;;;3.45;;
58659;SDS011;44429;45.110;20.622;2022-08-19T10:35:23;8.75;;;3.40;;
58659;SDS011;44429;45.110;20.622;2022-08-19T10:37:54;9.02;;;3.10;;
58659;SDS011;44429;45.110;20.622;2022-08-19T10:40:23;9.02;;;3.17;;
58659;SDS011;44429;45.110;20.622;2022-08-19T10:42:50;11.68;;;3.10;;
58659;SDS011;44429;45.110;20.622;2022-08-19T10:45:16;11.25;;;3.85;;
58659;SDS011;44429;45.110;20.622;2022-08-19T10:47:42;10.90;;;3.80;;
58659;SDS011;44429;45.110;20.622;2022-08-19T10:50:08;10.65;;;3.55;;
58659;SDS011;44429;45.110;20.622;2022-08-19T10:52:52;11.27;;;3.35;;
58659;SDS011;44429;45.110;20.622;2022-08-19T10:55:20;10.85;;;3.10;;
58659;SDS011;44429;45.110;20.622;2022-08-19T10:58:09;11.30;;;3.28;;
58659;SDS011;44429;45.110;20.622;2022-08-19T11:00:36;9.63;;;3.85;;
58659;SDS011;44429;45.110;20.622;2022-08-19T11:03:02;14.27;;;3.63;;
58659;SDS011;44429;45.110;20.622;2022-08-19T11:05:28;10.15;;;3.10;;
58659;SDS011;44429;45.110;20.622;2022-08-19T11:07:55;9.65;;;3.15;;
58659;SDS011;44429;45.110;20.622;2022-08-19T11:10:21;10.02;;;3.80;;
58659;SDS011;44429;45.110;20.622;2022-08-19T11:12:48;11.85;;;3.88;;
58659;SDS011;44429;45.110;20.622;2022-08-19T11:17:46;11.10;;;3.25;;
58659;SDS011;44429;45.110;20.622;2022-08-19T11:20:12;11.20;;;3.28;;
58659;SDS011;44429;45.110;20.622;2022-08-19T11:22:39;9.13;;;3.22;;
58659;SDS011;44429;45.110;20.622;2022-08-19T11:25:05;12.35;;;3.10;;
58659;SDS011;44429;45.110;20.622;2022-08-19T11:27:32;11.52;;;3.22;;
58659;SDS011;44429;45.110;20.622;2022-08-19T11:29:58;11.77;;;3.58;;
58659;SDS011;44429;45.110;20.622;2022-08-19T11:32:25;9.48;;;3.67;;
58659;SDS011;44429;45.110;20.622;2022-08-19T11:34:52;11.27;;;3.60;;
58659;SDS011;44429;45.110;20.622;2022-08-19T11:37:19;11.30;;;4.00;;
58659;SDS011;44429;45.110;20.622;2022-08-19T11:39:45;9.90;;;3.70;;
58659;SDS011;44429;45.110;20.622;2022-08-19T11:42:11;12.73;;;3.53;;
58659;SDS011;44429;45.110;20.622;2022-08-19T11:44:56;11.95;;;3.65;;
58659;SDS011;44429;45.110;20.622;2022-08-19T11:47:22;10.25;;;4.43;;
58659;SDS011;44429;45.110;20.622;2022-08-19T11:49:49;9.80;;;3.47;;
58659;SDS011;44429;45.110;20.622;2022-08-19T11:52:15;9.80;;;3.15;;
58659;SDS011;44429;45.110;20.622;2022-08-19T11:54:41;12.77;;;3.35;;
58659;SDS011;44429;45.110;20.622;2022-08-19T11:57:07;13.85;;;3.40;;
58659;SDS011;44429;45.110;20.622;2022-08-19T11:59:33;9.57;;;3.03;;
58659;SDS011;44429;45.110;20.622;2022-08-19T12:01:59;7.82;;;2.60;;
58659;SDS011;44429;45.110;20.622;2022-08-19T12:04:25;11.85;;;3.33;;
58659;SDS011;44429;45.110;20.622;2022-08-19T12:06:51;12.80;;;3.92;;
58659;SDS011;44429;45.110;20.622;2022-08-19T12:09:17;8.93;;;3.00;;
58659;SDS011;44429;45.110;20.622;2022-08-19T12:11:44;9.25;;;3.17;;
58659;SDS011;44429;45.110;20.622;2022-08-19T12:14:11;17.73;;;4.10;;
58659;SDS011;44429;45.110;20.622;2022-08-19T12:16:39;13.57;;;3.78;;
58659;SDS011;44429;45.110;20.622;2022-08-19T12:19:06;14.82;;;3.78;;
58659;SDS011;44429;45.110;20.622;2022-08-19T12:21:33;17.65;;;4.22;;
58659;SDS011;44429;45.110;20.622;2022-08-19T12:24:00;13.13;;;4.22;;
58659;SDS011;44429;45.110;20.622;2022-08-19T12:26:27;9.52;;;3.42;;
58659;SDS011;44429;45.110;20.622;2022-08-19T12:28:54;12.25;;;3.72;;
58659;SDS011;44429;45.110;20.622;2022-08-19T12:31:20;10.23;;;3.33;;
58659;SDS011;44429;45.110;20.622;2022-08-19T12:33:47;8.48;;;3.80;;
58659;SDS011;44429;45.110;20.622;2022-08-19T12:36:14;13.48;;;3.60;;
58659;SDS011;44429;45.110;20.622;2022-08-19T12:38:40;11.40;;;3.53;;
58659;SDS011;44429;45.110;20.622;2022-08-19T12:41:08;12.93;;;4.00;;
58659;SDS011;44429;45.110;20.622;2022-08-19T12:43:35;10.55;;;3.83;;
58659;SDS011;44429;45.110;20.622;2022-08-19T12:46:02;11.95;;;3.70;;
58659;SDS011;44429;45.110;20.622;2022-08-19T12:48:29;10.25;;;3.55;;
58659;SDS011;44429;45.110;20.622;2022-08-19T12:50:55;12.45;;;3.50;;
58659;SDS011;44429;45.110;20.622;2022-08-19T12:53:21;12.45;;;3.67;;
58659;SDS011;44429;45.110;20.622;2022-08-19T12:55:47;13.10;;;3.97;;
58659;SDS011;44429;45.110;20.622;2022-08-19T12:58:14;12.30;;;3.75;;
58659;SDS011;44429;45.110;20.622;2022-08-19T13:00:40;9.18;;;3.30;;
58659;SDS011;44429;45.110;20.622;2022-08-19T13:03:06;8.55;;;3.13;;
58659;SDS011;44429;45.110;20.622;2022-08-19T13:05:33;11.02;;;3.22;;
58659;SDS011;44429;45.110;20.622;2022-08-19T13:07:59;12.63;;;3.70;;
58659;SDS011;44429;45.110;20.622;2022-08-19T13:10:28;12.68;;;3.88;;
58659;SDS011;44429;45.110;20.622;2022-08-19T13:12:55;10.85;;;3.28;;
58659;SDS011;44429;45.110;20.622;2022-08-19T13:15:22;9.32;;;3.17;;
58659;SDS011;44429;45.110;20.622;2022-08-19T13:17:49;12.13;;;3.55;;
58659;SDS011;44429;45.110;20.622;2022-08-19T13:20:16;14.52;;;3.78;;
58659;SDS011;44429;45.110;20.622;2022-08-19T13:22:44;14.10;;;4.13;;
58659;SDS011;44429;45.110;20.622;2022-08-19T13:25:10;10.73;;;3.58;;
58659;SDS011;44429;45.110;20.622;2022-08-19T13:27:37;11.85;;;3.63;;
58659;SDS011;44429;45.110;20.622;2022-08-19T13:30:04;8.73;;;3.88;;
58659;SDS011;44429;45.110;20.622;2022-08-19T13:32:49;10.95;;;3.45;;
58659;SDS011;44429;45.110;20.622;2022-08-19T13:35:33;10.52;;;3.58;;
58659;SDS011;44429;45.110;20.622;2022-08-19T13:37:59;15.98;;;3.58;;
58659;SDS011;44429;45.110;20.622;2022-08-19T13:40:30;11.38;;;3.20;;
58659;SDS011;44429;45.110;20.622;2022-08-19T13:42:59;13.75;;;3.42;;
58659;SDS011;44429;45.110;20.622;2022-08-19T13:45:25;13.73;;;3.50;;
58659;SDS011;44429;45.110;20.622;2022-08-19T13:47:52;10.75;;;3.58;;
58659;SDS011;44429;45.110;20.622;2022-08-19T13:50:20;7.40;;;3.25;;
58659;SDS011;44429;45.110;20.622;2022-08-19T13:52:46;10.00;;;3.22;;
58659;SDS011;44429;45.110;20.622;2022-08-19T13:55:13;11.30;;;3.63;;
58659;SDS011;44429;45.110;20.622;2022-08-19T13:57:40;10.45;;;3.00;;
58659;SDS011;44429;45.110;20.622;2022-08-19T14:00:11;9.55;;;3.33;;
58659;SDS011;44429;45.110;20.622;2022-08-19T14:02:39;14.75;;;4.32;;
58659;SDS011;44429;45.110;20.622;2022-08-19T14:05:06;14.02;;;3.75;;
58659;SDS011;44429;45.110;20.622;2022-08-19T14:07:33;15.15;;;3.95;;
58659;SDS011;44429;45.110;20.622;2022-08-19T14:09:59;15.60;;;3.90;;
58659;SDS011;44429;45.110;20.622;2022-08-19T14:12:25;12.85;;;3.50;;
58659;SDS011;44429;45.110;20.622;2022-08-19T14:14:51;14.57;;;4.47;;
58659;SDS011;44429;45.110;20.622;2022-08-19T14:17:18;11.35;;;3.90;;
58659;SDS011;44429;45.110;20.622;2022-08-19T14:19:44;13.52;;;4.45;;
58659;SDS011;44429;45.110;20.622;2022-08-19T14:22:10;12.35;;;3.63;;
58659;SDS011;44429;45.110;20.622;2022-08-19T14:24:39;8.88;;;3.05;;
58659;SDS011;44429;45.110;20.622;2022-08-19T14:27:06;10.73;;;3.20;;
58659;SDS011;44429;45.110;20.622;2022-08-19T14:29:33;9.88;;;2.90;;
58659;SDS011;44429;45.110;20.622;2022-08-19T14:31:59;9.32;;;3.30;;
58659;SDS011;44429;45.110;20.622;2022-08-19T14:34:26;11.57;;;3.42;;
58659;SDS011;44429;45.110;20.622;2022-08-19T14:36:52;14.70;;;3.83;;
58659;SDS011;44429;45.110;20.622;2022-08-19T14:39:18;11.05;;;3.13;;
58659;SDS011;44429;45.110;20.622;2022-08-19T14:41:44;10.43;;;3.03;;
58659;SDS011;44429;45.110;20.622;2022-08-19T14:44:11;10.15;;;3.67;;
58659;SDS011;44429;45.110;20.622;2022-08-19T14:46:40;13.85;;;3.35;;
58659;SDS011;44429;45.110;20.622;2022-08-19T14:49:06;10.65;;;3.42;;